CPD7 weather

CLOSED Devon Camp Airport
Peggo, British Columbia, Canada

Public forecast

Using degrees Celsius for public forecast. Weather courtesy of forecast.io.

Closest aviation weather report (METAR) to Devon Camp Airport

Closest report is Fort Nelson Airport, 77.2 nm (143.0 km) WSW. Retrieved 2019/10/22 07:00 UTC (12 minutes ago):

CYYE 220700Z 09005KT 7SM OVC007 00/M01 A2969 RMK SC8 SLP075

Closest aviation forecast (TAF) to Devon Camp Airport

Closest forecast is Fort Nelson Airport, 77.2 nm (143.0 km) WSW. Retrieved 2019/10/22 07:51 UTC (0 seconds ago):

TAF CYYE 220649Z 2207/2219 09005KT P6SM OVC008 TEMPO 2207/2210 OVC005 FM221000 VRB03KT 1SM -SN OVC005 TEMPO 2210/2219 6SM -SN SCT005 OVC012 BECMG 2216/2218 30010KT RMK NXT FCST BY 221300Z